aviador You're here:

YBHM Decoded Metar

HAMILTON ISLAND in AUSTRALIA
Report Time2018-01-18 13:30:00
UTC Time2018-01-18 13:55:32
Flight Rules vfr VFR
Wind130° at 22 kt
W.Decomp.*RWY 14: 20.9 kt HW 6.8 kt LCW
W.Rank130° ranks 1
Current wind is above 130° avg. (17.2)
Visibility9999 m
Phenomena:N/A
Clouds:Scattered 045 Hf
Expected CloudBase > 2,800 ft AGL from Temp-Dew spread
CeilingNone
Temp26°C (ISA +11)
Dew Point19°C (65% RH)
AAT21.3°C
QNH1014 hPa
Density Alt1,549 ft
Elevation16 ft
Report Wrong Elevation
Raw Report
YBHM 181330Z AUTO 13022KT 9999 // SCT045 26/19 Q1014=

Extra information for YBHM:More info

Metar Taf Metar & Taf Last 4 Metars F.Rules Stats Wind Profile Meteogram Temp Stats Airport Information Weather charts Add Link Nearby VenuesMetar ALERT Operation Metar Decoded Social comments